Mae Hong Son, Thailand
Current Conditions -  °F | °C
As of 4:00 AM on Friday 24 Oct 2014 (Local Time) from VTCC Reporting Station
Broken Clouds Broken Clouds  
Wind Chill: 73°   Ceiling: 3500
Heat Index: 73°   Visibility: 6mi
Dew Point: 70°   Wind: 3mph
Humidity: 88%   Direction: 30°NNE
Pressure: 29.97"   Gusts: NA
Location:  19.27°N, 97.93°E
Report Text: VTCC 232100Z 03003KT 9999 FEW018 BKN035 23/21 Q1015 A2996 NOSIG
Loading
Personal Weather Stations






























Interactive Weather Map
Tropical Storm Tracking
New forecast layout! Learn more

10-Day Weather Forecast

Advertisements
Track Severe Weather on mobile